Terminal Aerodrome Forecast
Issued by NWS Sioux Falls, SD

Home | Current Version | Previous Version | Graphics & Text | Print | Product List | Glossary Off
Versions: 1 2 3 4 5 6 7 8 9 10 11 12 13 14 15 16 17 18 19

000
FTUS43 KFSD 202147 AAA
TAFFSD
TAF AMD
KFSD 202147Z 2022/2118 17010KT P6SM OVC005
     FM202300 17008KT 4SM BR OVC005
     FM210600 17007KT 3/4SM BR OVC004
     FM211600 17008KT 4SM BR OVC007=

USA.gov is the U.S. government's official web portal to all federal, state and local government web resources and services.